Terminal Aerodrome Forecast
Issued by NWS Northern Indiana

Home | Current Version | Previous Version | Graphics & Text | Print | Product List | Glossary On
Versions: 1 2 3 4 5 6 7 8 9 10 11 12 13 14 15 16 17 18
000
FTUS43 KIWX 271135
TAFFWA
TAF
KFWA 271135Z 2712/2812 06014KT 5SM BR OVC006
      TEMPO 2712/2714 SCT006 OVC010
     FM271400 07017G22KT P6SM SCT012 BKN020
     FM271800 08018G23KT P6SM SCT015 BKN040
     FM280200 07017G25KT 6SM -RA BR OVC020=

USA.gov is the U.S. government's official web portal to all federal, state and local government web resources and services.